Time;durP1;ratioP1;P1;durP2;ratioP2;P2;SDS_P1;SDS_P2;PMS_P1;PMS_P2;Temp;Humidity;BMP_temperature;BMP_pressure;BME280_temperature;BME280_humidity;BME280_pressure;Samples;Min_cycle;Max_cycle;Signal;HPM_P1;HPM_P2
2024/04/01 00:00:29;;;;;;;66.50;11.50;;;;;;;15.67;44.56;98545.29;102523;1265;107668;-75
2024/04/01 00:03:49;;;;;;;65.70;11.70;;;;;;;15.61;44.76;98539.50;102661;1266;99166;-74
2024/04/01 00:06:49;;;;;;;63.00;10.80;;;;;;;15.55;44.88;98536.93;102529;1265;107161;-74
2024/04/01 00:09:50;;;;;;;68.40;11.40;;;;;;;15.51;44.98;98540.63;102612;1267;99222;-74
2024/04/01 00:12:53;;;;;;;61.00;11.40;;;;;;;15.46;45.09;98540.33;102681;1267;112470;-74
2024/04/01 00:15:54;;;;;;;63.60;10.40;;;;;;;15.40;45.23;98541.61;102593;1264;106347;-74
2024/04/01 00:18:55;;;;;;;50.40;10.80;;;;;;;15.35;45.39;98538.20;102619;1267;99645;-74
2024/04/01 00:21:55;;;;;;;56.30;10.60;;;;;;;15.29;45.51;98541.30;102596;1265;107614;-74
2024/04/01 00:24:57;;;;;;;67.80;10.10;;;;;;;15.24;45.55;98541.05;102571;1268;99178;-73
2024/04/01 00:27:57;;;;;;;62.10;11.10;;;;;;;15.18;45.84;98545.64;102577;1264;111897;-73
2024/04/01 00:30:57;;;;;;;69.90;11.10;;;;;;;15.16;45.79;98540.82;102548;1270;108477;-73
2024/04/01 00:33:57;;;;;;;61.70;11.00;;;;;;;15.11;45.84;98543.78;102585;1267;99125;-73
2024/04/01 00:36:58;;;;;;;55.90;11.10;;;;;;;15.10;46.04;98545.10;102565;1267;107961;-73
2024/04/01 00:39:59;;;;;;;55.60;11.20;;;;;;;15.06;46.06;98543.09;102703;1267;99163;-73
2024/04/01 00:43:09;;;;;;;53.80;10.60;;;;;;;15.03;46.32;98547.89;102686;1268;112053;-73
2024/04/01 00:46:10;;;;;;;61.40;10.20;;;;;;;14.98;46.41;98546.71;102668;1269;108288;-73
2024/04/01 00:49:11;;;;;;;66.90;11.20;;;;;;;14.92;46.54;98544.92;102635;1265;99070;-72
2024/04/01 00:52:13;;;;;;;55.30;9.80;;;;;;;14.85;46.73;98537.74;102588;1265;108038;-73
2024/04/01 00:55:14;;;;;;;61.20;10.10;;;;;;;14.80;46.84;98539.17;102551;1265;99148;-73
2024/04/01 00:58:16;;;;;;;63.60;10.70;;;;;;;14.76;47.00;98540.92;102875;1267;112727;-74
2024/04/01 01:01:17;;;;;;;52.20;9.80;;;;;;;14.72;46.99;98540.85;102551;1270;108061;-73
2024/04/01 01:04:18;;;;;;;52.10;10.50;;;;;;;14.69;47.14;98542.13;101773;1264;1002693;-74
2024/04/01 01:07:19;;;;;;;55.20;10.10;;;;;;;14.65;47.22;98538.42;102606;1267;107582;-73
2024/04/01 01:10:20;;;;;;;58.70;10.50;;;;;;;14.60;47.41;98541.96;102649;1275;99167;-74
2024/04/01 01:13:21;;;;;;;67.50;10.80;;;;;;;14.53;47.48;98535.09;102672;1266;111940;-73
2024/04/01 01:16:22;;;;;;;50.30;10.60;;;;;;;14.51;47.61;98535.58;102537;1269;107333;-73
2024/04/01 01:19:24;;;;;;;57.80;10.90;;;;;;;14.48;47.68;98533.52;102686;1264;99196;-73
2024/04/01 01:22:37;;;;;;;53.10;10.60;;;;;;;14.46;47.72;98538.27;102657;1264;107436;-73
2024/04/01 01:25:37;;;;;;;59.40;9.30;;;;;;;14.42;47.91;98540.98;102745;1266;99060;-74
2024/04/01 01:28:39;;;;;;;55.40;10.10;;;;;;;14.37;48.01;98539.60;102701;1266;112405;-74
2024/04/01 01:31:40;;;;;;;64.30;10.70;;;;;;;14.37;48.03;98536.82;102696;1266;106736;-73
2024/04/01 01:34:42;;;;;;;53.10;10.50;;;;;;;14.35;48.12;98534.18;102737;1267;99695;-73
2024/04/01 01:37:46;;;;;;;52.20;9.90;;;;;;;14.32;48.12;98528.81;102687;1263;106894;-71
2024/04/01 01:40:47;;;;;;;54.90;10.20;;;;;;;14.34;48.15;98533.70;102717;1266;99617;-73
2024/04/01 01:43:47;;;;;;;58.00;9.50;;;;;;;14.34;48.25;98533.90;102710;1264;111641;-73
2024/04/01 01:46:48;;;;;;;59.80;9.90;;;;;;;14.32;48.30;98527.70;102694;1268;107886;-74
2024/04/01 01:49:49;;;;;;;46.10;9.00;;;;;;;14.31;48.26;98526.42;102752;1264;99197;-73
2024/04/01 01:52:50;;;;;;;55.50;9.50;;;;;;;14.28;48.41;98522.11;102639;1268;108002;-74
2024/04/01 01:55:50;;;;;;;49.10;9.90;;;;;;;14.24;48.70;98530.11;102629;1264;99163;-73
2024/04/01 01:58:51;;;;;;;54.10;10.00;;;;;;;14.18;48.87;98535.95;102696;1263;111866;-74
2024/04/01 02:01:52;;;;;;;52.30;9.50;;;;;;;14.13;48.88;98541.02;102692;1264;108074;-73
2024/04/01 02:04:53;;;;;;;58.00;9.90;;;;;;;14.10;49.16;98542.35;102709;1267;99214;-72
2024/04/01 02:07:53;;;;;;;51.10;9.60;;;;;;;14.07;49.06;98539.39;102573;1267;107587;-72
2024/04/01 02:10:57;;;;;;;46.80;8.70;;;;;;;14.05;49.23;98542.86;102665;1264;99183;-73
2024/04/01 02:13:57;;;;;;;40.40;7.70;;;;;;;14.04;49.36;98551.51;102619;1267;112471;-73
2024/04/01 02:16:58;;;;;;;41.70;8.30;;;;;;;14.02;49.39;98547.65;102585;1264;108750;-73
2024/04/01 02:20:11;;;;;;;61.40;10.60;;;;;;;14.00;49.51;98546.72;102680;1264;99247;-73
2024/04/01 02:23:12;;;;;;;51.40;8.80;;;;;;;13.95;49.58;98542.16;102552;1264;139250;-73
2024/04/01 02:26:13;;;;;;;54.80;8.20;;;;;;;13.95;49.82;98552.70;102635;1264;99183;-74
2024/04/01 02:29:14;;;;;;;49.40;8.80;;;;;;;13.92;50.02;98556.02;102452;1267;138314;-73
2024/04/01 02:32:15;;;;;;;45.20;8.40;;;;;;;13.90;49.91;98549.15;102612;1269;106932;-73
2024/04/01 02:35:16;;;;;;;49.50;9.00;;;;;;;13.89;49.97;98540.67;102535;1267;138204;-74
2024/04/01 02:38:17;;;;;;;45.00;8.10;;;;;;;13.87;50.02;98535.95;102596;1264;106971;-74
2024/04/01 02:41:17;;;;;;;40.20;8.10;;;;;;;13.87;50.12;98537.33;102468;1269;138415;-72
2024/04/01 02:44:18;;;;;;;42.10;8.30;;;;;;;13.86;50.22;98530.98;102652;1264;111620;-73
2024/04/01 02:47:18;;;;;;;45.90;8.00;;;;;;;13.84;50.18;98525.86;102419;1265;138392;-72
2024/04/01 02:50:18;;;;;;;40.10;8.30;;;;;;;13.84;50.31;98523.98;102596;1264;99659;-73
2024/04/01 02:53:19;;;;;;;52.80;7.80;;;;;;;13.82;50.38;98524.09;102535;1264;138035;-73
2024/04/01 02:56:19;;;;;;;48.60;8.70;;;;;;;13.80;50.38;98528.61;102611;1264;99223;-73
2024/04/01 02:59:19;;;;;;;50.80;8.30;;;;;;;13.77;50.41;98523.94;102509;1267;138117;-74
2024/04/01 03:02:19;;;;;;;42.20;8.10;;;;;;;13.74;50.71;98524.33;102541;1267;106620;-74
2024/04/01 03:05:20;;;;;;;44.40;8.10;;;;;;;13.70;50.69;98530.58;102584;1267;138208;-74
2024/04/01 03:08:20;;;;;;;40.70;9.00;;;;;;;13.66;50.92;98529.30;102639;1267;106821;-74
2024/04/01 03:11:20;;;;;;;49.60;8.40;;;;;;;13.63;50.98;98529.16;102574;1264;138837;-74
2024/04/01 03:14:21;;;;;;;44.70;8.40;;;;;;;13.60;51.04;98526.17;102708;1267;111832;-74
2024/04/01 03:17:21;;;;;;;42.50;8.30;;;;;;;13.57;51.30;98530.45;102496;1262;138339;-73
2024/04/01 03:20:22;;;;;;;41.10;7.60;;;;;;;13.55;51.44;98532.02;102697;1264;99556;-73
2024/04/01 03:23:23;;;;;;;53.90;8.80;;;;;;;13.52;51.49;98534.48;102606;1263;138016;-72
2024/04/01 03:26:23;;;;;;;42.10;7.90;;;;;;;13.49;51.48;98534.36;102701;1264;99160;-73
2024/04/01 03:29:23;;;;;;;40.40;7.90;;;;;;;13.47;51.53;98535.91;102610;1263;138212;-73
2024/04/01 03:32:23;;;;;;;45.20;8.30;;;;;;;13.44;51.75;98531.52;102630;1266;107791;-73
2024/04/01 03:35:24;;;;;;;49.10;8.60;;;;;;;13.43;51.78;98535.11;102591;1267;138165;-73
2024/04/01 03:38:24;;;;;;;44.20;7.70;;;;;;;13.42;51.90;98536.09;102678;1264;107716;-75
2024/04/01 03:41:24;;;;;;;40.90;7.90;;;;;;;13.41;51.87;98535.31;102623;1266;138146;-73
2024/04/01 03:44:25;;;;;;;42.50;7.90;;;;;;;13.40;51.90;98530.84;102722;1263;112804;-74
2024/04/01 03:47:26;;;;;;;44.80;7.70;;;;;;;13.37;51.89;98526.11;102485;1268;139197;-73
2024/04/01 03:50:26;;;;;;;42.60;8.20;;;;;;;13.36;51.84;98527.10;102680;1267;99171;-74
2024/04/01 03:53:27;;;;;;;39.80;8.30;;;;;;;13.34;52.06;98531.63;102502;1264;138105;-72
2024/04/01 03:56:28;;;;;;;42.80;7.90;;;;;;;13.30;52.07;98533.42;102690;1264;99182;-73
2024/04/01 03:59:29;;;;;;;49.00;9.60;;;;;;;13.26;52.20;98531.21;102586;1264;137937;-72
2024/04/01 04:02:30;;;;;;;30.90;7.50;;;;;;;13.25;52.19;98530.98;102660;1266;106482;-72
2024/04/01 04:05:32;;;;;;;50.90;9.90;;;;;;;13.23;52.35;98534.41;102611;1266;138794;-73
2024/04/01 04:08:35;;;;;;;43.10;8.30;;;;;;;13.22;52.42;98535.92;102881;1264;108851;-72
2024/04/01 04:11:36;;;;;;;38.70;7.90;;;;;;;13.21;52.50;98531.95;102819;1267;138307;-73
2024/04/01 04:14:38;;;;;;;39.60;7.60;;;;;;;13.21;52.45;98526.16;102836;1263;112816;-73
2024/04/01 04:17:39;;;;;;;49.50;8.40;;;;;;;13.19;52.61;98523.05;102606;1263;138228;-74
2024/04/01 04:20:40;;;;;;;41.20;7.00;;;;;;;13.19;52.60;98520.23;102793;1266;99172;-74
2024/04/01 04:23:40;;;;;;;41.40;8.50;;;;;;;13.18;52.71;98521.18;102625;1263;138038;-73
2024/04/01 04:26:41;;;;;;;48.20;8.90;;;;;;;13.16;52.94;98521.96;102748;1263;99144;-74
2024/04/01 04:29:41;;;;;;;50.80;8.20;;;;;;;13.16;52.82;98518.36;102582;1266;138027;-73
2024/04/01 04:32:41;;;;;;;44.20;8.20;;;;;;;13.16;53.02;98511.15;102628;1264;106589;-73
2024/04/01 04:35:35;;;;;;;39.30;8.50;;;;;;;13.18;52.99;98507.39;102600;1264;138330;-73
2024/04/01 04:38:36;;;;;;;39.10;7.20;;;;;;;13.22;53.07;98512.17;102694;1264;107854;-73
2024/04/01 04:41:36;;;;;;;47.40;8.30;;;;;;;13.27;53.03;98506.21;102591;1267;138203;-73
2024/04/01 04:44:37;;;;;;;49.00;8.00;;;;;;;13.38;52.83;98506.66;102600;1267;112213;-73
2024/04/01 04:47:38;;;;;;;45.50;8.10;;;;;;;13.54;52.73;98511.27;102512;1263;138795;-72
2024/04/01 04:50:38;;;;;;;49.00;8.20;;;;;;;13.77;52.51;98515.40;102657;1264;99518;-73
2024/04/01 04:53:38;;;;;;;47.20;7.50;;;;;;;14.04;51.98;98523.91;102569;1263;138011;-73
2024/04/01 04:56:39;;;;;;;40.00;7.70;;;;;;;14.32;51.55;98521.27;102694;1267;99192;-73
2024/04/01 04:59:40;;;;;;;42.90;7.90;;;;;;;14.67;50.98;98540.70;102568;1266;137983;-72
2024/04/01 05:02:40;;;;;;;48.70;8.90;;;;;;;15.00;50.19;98549.17;102654;1264;109142;-74
2024/04/01 05:05:40;;;;;;;38.90;8.50;;;;;;;15.37;49.40;98552.38;102772;1263;138162;-74
2024/04/01 05:08:40;;;;;;;40.60;8.00;;;;;;;15.73;48.79;98554.47;102635;1263;107111;-74
2024/04/01 05:11:40;;;;;;;44.20;8.20;;;;;;;16.15;47.97;98551.88;102544;1263;138299;-73
2024/04/01 05:14:41;;;;;;;37.20;8.10;;;;;;;16.64;47.19;98551.20;102709;1262;111738;-73
2024/04/01 05:17:42;;;;;;;47.50;8.70;;;;;;;17.12;46.36;98552.38;102603;1266;138252;-73
2024/04/01 05:20:43;;;;;;;46.30;8.90;;;;;;;17.68;45.76;98552.98;95186;1266;10222594;-74
2024/04/01 05:23:44;;;;;;;52.80;8.50;;;;;;;18.36;44.50;98550.43;102891;1264;138449;-74
2024/04/01 05:26:44;;;;;;;43.90;8.20;;;;;;;19.01;43.51;98542.77;102795;1264;99276;-73
2024/04/01 05:29:44;;;;;;;45.40;8.20;;;;;;;19.75;42.66;98534.98;102564;1266;138315;-74
2024/04/01 05:32:46;;;;;;;43.80;8.40;;;;;;;20.51;41.63;98530.65;102740;1267;99206;-74
2024/04/01 05:35:48;;;;;;;52.10;9.10;;;;;;;21.26;40.52;98526.89;102655;1264;138194;-73
2024/04/01 05:38:47;;;;;;;44.40;8.50;;;;;;;22.02;39.55;98521.76;102656;1264;107651;-74
2024/04/01 05:41:48;;;;;;;50.50;9.10;;;;;;;22.87;38.21;98520.61;102646;1264;138228;-74
2024/04/01 05:44:50;;;;;;;51.50;9.00;;;;;;;23.63;37.06;98513.05;102738;1264;108237;-82
2024/04/01 05:47:52;;;;;;;35.70;7.70;;;;;;;24.37;35.91;98508.96;102610;1263;138392;-84
2024/04/01 05:50:57;;;;;;;35.20;8.40;;;;;;;25.13;34.81;98511.08;102697;1263;112557;-84
2024/04/01 05:53:58;;;;;;;44.00;8.70;;;;;;;25.69;33.64;98511.28;102511;1264;138298;-88
2024/04/01 05:56:58;;;;;;;44.70;7.90;;;;;;;26.27;32.61;98500.32;102742;1264;99076;-84
2024/04/01 05:59:59;;;;;;;43.50;8.60;;;;;;;26.90;32.17;98502.02;102662;1263;138240;-90
2024/04/01 06:03:00;;;;;;;53.40;8.50;;;;;;;27.54;30.70;98502.84;102766;1266;99545;-85
2024/04/01 06:06:01;;;;;;;44.70;9.30;;;;;;;28.06;30.49;98502.23;102618;1264;138576;-87
2024/04/01 06:09:03;;;;;;;51.60;10.00;;;;;;;28.64;29.56;98504.20;102584;1264;107860;-82
2024/04/01 06:12:03;;;;;;;48.50;9.00;;;;;;;29.11;28.91;98499.41;102595;1266;138648;-82
2024/04/01 06:15:04;;;;;;;43.80;8.50;;;;;;;29.59;28.18;98493.62;102663;1264;108020;-80
2024/04/01 06:18:04;;;;;;;40.90;8.20;;;;;;;29.73;27.07;98490.11;102540;1267;138158;-79
2024/04/01 06:21:04;;;;;;;43.90;8.30;;;;;;;29.74;26.66;98492.71;102701;1267;111487;-78
2024/04/01 06:24:05;;;;;;;51.80;9.90;;;;;;;29.57;26.64;98491.18;102471;1264;138354;-79
2024/04/01 06:27:05;;;;;;;41.60;8.30;;;;;;;29.46;26.64;98480.85;102749;1264;99186;-87
2024/04/01 06:30:07;;;;;;;45.00;8.60;;;;;;;28.85;26.80;98484.34;102626;1266;137821;-88
2024/04/01 06:33:08;;;;;;;38.60;8.10;;;;;;;27.64;27.48;98494.88;102730;1266;99167;-82
2024/04/01 06:36:09;;;;;;;47.70;10.00;;;;;;;26.76;28.58;98493.93;102587;1264;137891;-86
2024/04/01 06:39:11;;;;;;;49.40;9.00;;;;;;;27.47;28.63;98498.70;102703;1262;107459;-83
2024/04/01 06:42:12;;;;;;;38.80;8.60;;;;;;;28.61;27.82;98497.17;102605;1264;138198;-84
2024/04/01 06:45:14;;;;;;;42.30;8.30;;;;;;;29.24;26.07;98500.69;102699;1263;107934;-86
2024/04/01 06:48:17;;;;;;;52.00;9.10;;;;;;;28.80;26.34;98497.01;102623;1267;137986;-86
2024/04/01 06:51:17;;;;;;;47.00;8.80;;;;;;;27.34;27.36;98505.92;102709;1264;112829;-86
2024/04/01 06:54:18;;;;;;;44.90;9.00;;;;;;;27.59;28.11;98512.42;102490;1264;138216;-86
2024/04/01 06:57:19;;;;;;;41.40;9.10;;;;;;;28.00;27.61;98509.95;102626;1265;99236;-63
2024/04/01 07:00:22;;;;;;;43.70;8.00;;;;;;;27.78;27.72;98507.85;102978;1263;137939;-64
2024/04/01 07:03:23;;;;;;;43.50;8.70;;;;;;;27.77;27.42;98507.27;103162;1263;99324;-64
2024/04/01 07:06:24;;;;;;;45.50;8.40;;;;;;;27.50;27.48;98508.14;102487;1263;138129;-63
2024/04/01 07:09:24;;;;;;;45.80;8.60;;;;;;;26.64;28.62;98512.53;102986;1266;106899;-63
2024/04/01 07:12:25;;;;;;;44.70;8.40;;;;;;;26.00;29.10;98518.33;102592;1266;138098;-62
2024/04/01 07:15:27;;;;;;;39.60;7.60;;;;;;;25.05;29.86;98519.56;103621;1264;108158;-62
2024/04/01 07:18:28;;;;;;;38.30;8.00;;;;;;;23.99;31.06;98540.01;102400;1266;138131;-63
2024/04/01 07:21:31;;;;;;;43.60;8.60;;;;;;;23.09;32.41;98536.15;103839;1262;111920;-87
2024/04/01 07:24:31;;;;;;;40.80;8.60;;;;;;;22.34;33.39;98540.81;102488;1262;138043;-80
2024/04/01 07:27:34;;;;;;;45.10;7.90;;;;;;;21.89;34.13;98538.00;102678;1263;99166;-82
2024/04/01 07:30:35;;;;;;;39.60;7.90;;;;;;;22.01;34.77;98538.28;102568;1262;136801;-78
2024/04/01 07:33:36;;;;;;;42.90;8.50;;;;;;;22.03;34.87;98532.47;102630;1264;99100;-84
2024/04/01 07:36:37;;;;;;;35.10;7.60;;;;;;;21.73;35.17;98546.20;102624;1264;137897;-87
2024/04/01 07:39:37;;;;;;;43.80;7.70;;;;;;;21.38;35.74;98553.25;102773;1267;107226;-88
2024/04/01 07:42:42;;;;;;;38.70;7.60;;;;;;;21.01;36.31;98548.71;102658;1262;138121;-86
2024/04/01 07:45:43;;;;;;;42.80;7.90;;;;;;;21.81;36.18;98542.59;102720;1262;107919;-83
2024/04/01 07:48:42;;;;;;;48.80;7.60;;;;;;;23.05;35.14;98529.67;102584;1262;138248;-82
2024/04/01 07:51:42;;;;;;;42.30;8.00;;;;;;;23.96;34.39;98518.23;102754;1264;112626;-82
2024/04/01 07:54:43;;;;;;;38.00;7.80;;;;;;;24.46;33.46;98513.86;102580;1262;138201;-80
2024/04/01 07:57:43;;;;;;;44.00;8.70;;;;;;;24.47;33.08;98512.17;102740;1266;99087;-84
2024/04/01 08:00:45;;;;;;;46.40;7.60;;;;;;;24.15;33.18;98513.04;102616;1263;138028;-83
2024/04/01 08:03:45;;;;;;;37.10;7.20;;;;;;;23.63;33.27;98516.79;102776;1262;99150;-83
2024/04/01 08:06:45;;;;;;;40.10;7.60;;;;;;;23.19;33.95;98504.35;102635;1266;138018;-81
2024/04/01 08:09:45;;;;;;;40.50;8.00;;;;;;;23.48;34.17;98499.94;102697;1266;108122;-83
2024/04/01 08:12:46;;;;;;;39.20;7.60;;;;;;;24.28;33.72;98494.90;102644;1266;138007;-84
2024/04/01 08:15:47;;;;;;;41.00;7.90;;;;;;;24.58;33.06;98493.08;102733;1264;107672;-83
2024/04/01 08:18:47;;;;;;;49.30;8.30;;;;;;;24.91;33.09;98490.48;102632;1262;139226;-84
2024/04/01 08:21:48;;;;;;;36.80;7.10;;;;;;;25.03;32.53;98496.09;102780;1266;111844;-84
2024/04/01 08:24:49;;;;;;;38.40;7.10;;;;;;;24.78;32.77;98495.00;102628;1267;138416;-84
2024/04/01 08:27:49;;;;;;;32.30;7.80;;;;;;;24.56;32.72;98497.27;102623;1263;99234;-82
2024/04/01 08:30:49;;;;;;;47.70;8.00;;;;;;;24.24;33.06;98497.84;102513;1262;137868;-81
2024/04/01 08:33:49;;;;;;;41.10;8.30;;;;;;;23.82;33.30;98508.73;102731;1267;99150;-82
2024/04/01 08:36:49;;;;;;;40.90;7.60;;;;;;;23.44;33.90;98519.58;102487;1263;137794;-81
2024/04/01 08:39:49;;;;;;;46.70;7.60;;;;;;;23.10;34.28;98529.51;102737;1266;107337;-80
2024/04/01 08:42:55;;;;;;;35.20;8.20;;;;;;;22.82;34.74;98529.02;102631;1267;137997;-81
2024/04/01 08:45:56;;;;;;;34.00;7.50;;;;;;;22.71;34.99;98527.70;102750;1262;107767;-84
2024/04/01 08:49:00;;;;;;;37.80;8.20;;;;;;;22.61;35.36;98531.66;102679;1267;138040;-84
2024/04/01 08:52:03;;;;;;;36.30;7.70;;;;;;;22.56;35.50;98539.30;102745;1262;112031;-83
2024/04/01 08:55:04;;;;;;;39.10;7.50;;;;;;;22.63;35.53;98538.50;102585;1263;138043;-81
2024/04/01 08:58:06;;;;;;;45.20;7.90;;;;;;;23.00;35.56;98531.59;102727;1266;99211;-82
2024/04/01 09:01:07;;;;;;;39.90;7.90;;;;;;;23.61;34.92;98534.89;102614;1262;138482;-83
2024/04/01 09:04:08;;;;;;;44.50;7.40;;;;;;;23.93;34.59;98529.10;102714;1262;99195;-82
2024/04/01 09:07:13;;;;;;;48.90;8.50;;;;;;;23.95;33.84;98531.15;102580;1263;138063;-82
2024/04/01 09:10:13;;;;;;;45.60;8.60;;;;;;;24.11;34.08;98524.92;102615;1263;107304;-81
2024/04/01 09:13:17;;;;;;;42.10;9.60;;;;;;;24.51;33.75;98515.95;102617;1263;138043;-80
2024/04/01 09:16:17;;;;;;;49.50;9.20;;;;;;;24.88;33.18;98514.10;102696;1264;107277;-81
2024/04/01 09:19:19;;;;;;;49.50;9.70;;;;;;;24.99;32.93;98507.23;102512;1262;138220;-81
2024/04/01 09:22:20;;;;;;;51.60;9.50;;;;;;;24.56;32.86;98498.84;102681;1263;112178;-81
2024/04/01 09:25:21;;;;;;;50.80;9.10;;;;;;;24.36;33.70;98495.55;102522;1264;137879;-84
2024/04/01 09:28:23;;;;;;;42.30;8.50;;;;;;;25.15;33.64;98497.52;102775;1264;99596;-82
2024/04/01 09:31:24;;;;;;;49.80;10.10;;;;;;;25.43;32.31;98505.02;102602;1264;137594;-82
2024/04/01 09:34:25;;;;;;;46.70;9.20;;;;;;;25.13;32.61;98506.52;102642;1264;99072;-81
2024/04/01 09:37:26;;;;;;;49.20;9.70;;;;;;;25.40;33.05;98504.91;102567;1262;138919;-83
2024/04/01 09:40:27;;;;;;;45.50;9.00;;;;;;;26.36;32.61;98503.29;102615;1262;107766;-82
2024/04/01 09:43:32;;;;;;;58.80;10.00;;;;;;;26.89;31.10;98498.02;102734;1264;99210;-82
2024/04/01 09:46:44;;;;;;;48.30;9.70;;;;;;;27.15;30.93;98481.46;102762;1263;108314;-82
2024/04/01 09:49:47;;;;;;;57.40;11.50;;;;;;;27.48;30.77;98474.98;102775;1266;99169;-82
2024/04/01 09:52:47;;;;;;;57.80;10.90;;;;;;;27.30;30.11;98477.20;102714;1264;112206;-81
2024/04/01 09:56:05;;;;;;;64.50;11.20;;;;;;;26.60;30.61;98474.95;102775;1262;108670;-82
2024/04/01 09:59:32;;;;;;;64.30;11.30;;;;;;;26.24;31.38;98468.96;102716;1262;99162;-74
2024/04/01 10:03:04;;;;;;;70.20;11.90;;;;;;;25.99;31.11;98475.09;102872;1263;106832;-75
2024/04/01 10:06:35;;;;;;;64.90;11.80;;;;;;;25.47;31.76;98480.20;102674;1261;138408;-61
2024/04/01 10:10:13;;;;;;;63.80;11.60;;;;;;;25.75;32.03;98471.88;102836;1261;113514;-61
2024/04/01 10:13:42;;;;;;;65.20;12.00;;;;;;;25.89;31.59;98466.61;102751;1260;138872;-63
2024/04/01 10:17:14;;;;;;;68.00;12.30;;;;;;;25.53;32.14;98453.63;102907;1260;99186;-63
2024/04/01 10:20:54;;;;;;;64.10;12.90;;;;;;;25.08;32.24;98451.79;103173;1260;107649;-65
2024/04/01 10:24:32;;;;;;;71.20;11.80;;;;;;;24.57;32.50;98450.63;102480;1266;139115;-67
2024/04/01 10:28:07;;;;;;;68.80;11.70;;;;;;;24.11;33.32;98448.88;102474;1265;113144;-64
2024/04/01 10:31:27;;;;;;;63.50;11.80;;;;;;;24.04;33.86;98435.98;102350;1269;138347;-67
2024/04/01 10:35:08;;;;;;;70.10;11.60;;;;;;;24.43;33.84;98439.31;102795;1265;99076;-64
2024/04/01 10:38:45;;;;;;;65.50;11.90;;;;;;;24.91;33.03;98431.81;102482;1265;107390;-65
2024/04/01 10:42:16;;;;;;;68.20;10.70;;;;;;;25.44;32.56;98428.88;102111;1273;138494;-65
2024/04/01 10:45:50;;;;;;;64.00;11.20;;;;;;;25.54;32.00;98412.33;102155;1276;112452;-68
2024/04/01 10:49:04;;;;;;;55.60;9.40;;;;;;;25.29;32.12;98417.70;102123;1273;138363;-63
2024/04/01 10:52:43;;;;;;;72.30;10.80;;;;;;;25.48;32.19;98415.25;102195;1273;99241;-63
2024/04/01 10:56:31;;;;;;;50.10;10.10;;;;;;;25.63;32.03;98407.16;102052;1272;138108;-63
2024/04/01 11:00:00;;;;;;;67.20;11.00;;;;;;;26.20;31.05;98410.73;102097;1273;138536;-63
2024/04/01 11:03:32;;;;;;;59.10;11.00;;;;;;;26.21;31.02;98430.36;102434;1267;112488;-64
2024/04/01 11:06:53;;;;;;;78.00;12.20;;;;;;;25.97;31.72;98426.48;102349;1273;138336;-63
2024/04/01 11:10:08;;;;;;;66.80;11.10;;;;;;;25.90;31.58;98432.94;102489;1273;99179;-64
2024/04/01 11:13:13;;;;;;;57.70;9.90;;;;;;;25.69;31.76;98439.19;102483;1269;138196;-64
2024/04/01 11:16:15;;;;;;;61.80;10.60;;;;;;;25.39;31.91;98433.55;102426;1267;99243;-63
2024/04/01 11:19:43;;;;;;;74.40;11.20;;;;;;;25.10;32.12;98425.27;102931;1262;140181;-65
2024/04/01 11:23:00;;;;;;;60.50;10.40;;;;;;;24.84;32.56;98410.05;102822;1262;108659;-64
2024/04/01 11:26:17;;;;;;;60.40;11.70;;;;;;;24.91;32.84;98411.29;102790;1262;99161;-65
2024/04/01 11:29:35;;;;;;;61.60;10.70;;;;;;;24.93;32.68;98402.83;102653;1267;108430;-65
2024/04/01 11:32:41;;;;;;;80.50;11.30;;;;;;;24.92;32.58;98411.38;102730;1262;99146;-64
2024/04/01 11:35:52;;;;;;;55.20;9.90;;;;;;;24.83;32.71;98393.34;102677;1262;138675;-64
2024/04/01 11:39:04;;;;;;;53.30;10.70;;;;;;;24.72;32.96;98402.01;103020;1261;107817;-66
2024/04/01 11:42:08;;;;;;;67.00;11.40;;;;;;;24.80;33.24;98383.94;102699;1267;138390;-64
2024/04/01 11:45:13;;;;;;;68.90;11.70;;;;;;;24.93;32.93;98369.59;102727;1261;107629;-65
2024/04/01 11:48:15;;;;;;;54.20;9.50;;;;;;;24.81;32.81;98384.27;102811;1262;138617;-63
2024/04/01 11:51:18;;;;;;;65.10;10.80;;;;;;;24.51;32.88;98384.85;102709;1262;113759;-63
2024/04/01 11:54:17;;;;;;;72.30;11.80;;;;;;;24.17;33.22;98373.74;102607;1262;138608;-62
2024/04/01 11:57:28;;;;;;;61.00;10.40;;;;;;;23.90;33.68;98361.79;102760;1262;99218;-63
2024/04/01 12:00:28;;;;;;;55.00;9.90;;;;;;;23.78;33.85;98383.67;102845;1261;138168;-63
2024/04/01 12:03:30;;;;;;;58.20;10.20;;;;;;;23.63;33.82;98382.66;102703;1262;99161;-63
2024/04/01 12:06:31;;;;;;;62.80;10.30;;;;;;;23.48;33.87;98368.16;102649;1262;138026;-63
2024/04/01 12:09:32;;;;;;;60.00;10.30;;;;;;;23.48;34.24;98366.10;103082;1262;107955;-62
2024/04/01 12:12:33;;;;;;;56.40;10.70;;;;;;;23.53;34.22;98353.81;103553;1262;138305;-62
2024/04/01 12:15:35;;;;;;;58.70;10.70;;;;;;;23.55;34.41;98364.10;102772;1262;108716;-62
2024/04/01 12:18:35;;;;;;;65.30;10.30;;;;;;;23.59;34.37;98362.73;102478;1267;138322;-64
2024/04/01 12:21:37;;;;;;;62.10;10.40;;;;;;;23.80;34.47;98353.88;102748;1262;113317;-63
2024/04/01 12:24:39;;;;;;;65.70;11.80;;;;;;;24.03;34.07;98358.57;102594;1262;138692;-64
2024/04/01 12:27:40;;;;;;;74.10;11.60;;;;;;;24.23;34.02;98343.30;102721;1262;99172;-65
2024/04/01 12:30:45;;;;;;;55.90;10.60;;;;;;;24.36;33.85;98344.38;102633;1262;138271;-64
2024/04/01 12:33:48;;;;;;;66.30;10.90;;;;;;;24.44;33.90;98333.48;102765;1262;99188;-65
2024/04/01 12:36:49;;;;;;;56.40;10.30;;;;;;;24.55;33.51;98336.23;102836;1262;138143;-63
2024/04/01 12:39:53;;;;;;;57.30;11.00;;;;;;;24.57;33.40;98333.67;102682;1262;107121;-64
2024/04/01 12:42:55;;;;;;;76.60;11.20;;;;;;;24.51;33.26;98323.33;102600;1265;138314;-64
2024/04/01 12:45:59;;;;;;;66.60;11.10;;;;;;;24.51;33.38;98301.59;102701;1262;107505;-63
2024/04/01 12:49:03;;;;;;;68.70;11.00;;;;;;;24.59;33.49;98304.95;102711;1262;139046;-61
2024/04/01 12:52:03;;;;;;;59.20;10.90;;;;;;;24.58;33.82;98296.02;103171;1262;111806;-68
2024/04/01 12:55:18;;;;;;;62.30;11.10;;;;;;;24.58;33.58;98301.88;103043;1261;138648;-66
2024/04/01 12:58:30;;;;;;;64.10;11.00;;;;;;;24.53;33.62;98295.42;103005;1263;99215;-66
2024/04/01 13:01:42;;;;;;;60.40;10.40;;;;;;;24.51;33.69;98283.19;102594;1262;139839;-67
2024/04/01 13:04:57;;;;;;;69.30;11.00;;;;;;;24.52;33.76;98277.45;102902;1262;99087;-66
2024/04/01 13:08:08;;;;;;;59.90;9.90;;;;;;;24.56;33.62;98271.46;102712;1262;113008;-67
2024/04/01 13:11:17;;;;;;;54.50;9.70;;;;;;;24.60;33.21;98278.38;102701;1266;107375;-65
2024/04/01 13:14:37;;;;;;;57.10;9.40;;;;;;;24.60;33.17;98277.16;103275;1261;99201;-65
2024/04/01 13:17:48;;;;;;;43.90;8.90;;;;;;;24.61;32.63;98284.80;103064;1266;108313;-68
2024/04/01 13:20:58;;;;;;;50.50;9.10;;;;;;;24.62;33.32;98274.77;102733;1262;99189;-68
2024/04/01 13:24:06;;;;;;;56.20;9.80;;;;;;;24.63;32.70;98288.75;102680;1262;139282;-65
2024/04/01 13:27:16;;;;;;;60.60;10.20;;;;;;;24.53;32.89;98274.27;103177;1262;107950;-65
2024/04/01 13:30:25;;;;;;;52.10;8.70;;;;;;;24.51;33.11;98271.66;102653;1262;139398;-64
2024/04/01 13:33:45;;;;;;;54.90;9.00;;;;;;;24.53;33.03;98266.96;102927;1262;107018;-63
2024/04/01 13:36:56;;;;;;;70.60;10.40;;;;;;;24.55;33.19;98254.15;102452;1262;138602;-63
2024/04/01 13:40:18;;;;;;;49.60;9.10;;;;;;;24.59;33.18;98256.27;102820;1262;113039;-63
2024/04/01 13:43:33;;;;;;;54.80;10.10;;;;;;;24.55;33.14;98256.62;102661;1262;138519;-63
2024/04/01 13:46:45;;;;;;;55.70;9.80;;;;;;;24.49;33.04;98268.80;102962;1262;99071;-69
2024/04/01 13:50:02;;;;;;;50.90;9.50;;;;;;;24.45;32.90;98268.68;102690;1262;138091;-69
2024/04/01 13:53:25;;;;;;;64.30;10.20;;;;;;;24.38;33.10;98267.95;103018;1262;99069;-67
2024/04/01 13:56:42;;;;;;;56.60;10.00;;;;;;;24.40;32.93;98280.82;102729;1262;113161;-67
2024/04/01 13:59:49;;;;;;;54.80;9.00;;;;;;;24.30;32.90;98276.02;102767;1262;107098;-67